Time;durP1;ratioP1;P1;durP2;ratioP2;P2;SDS_P1;SDS_P2;PMS_P1;PMS_P2;Temp;Humidity;BMP_temperature;BMP_pressure;BME280_temperature;BME280_humidity;BME280_pressure;Samples;Min_cycle;Max_cycle;Signal;HPM_P1;HPM_P2
2023/05/28 00:00:08;;;;;;;3.90;1.73;;;12.60;98.60;;;;;;5014430;28;20171;-69
2023/05/28 00:02:34;;;;;;;8.13;2.10;;;12.50;98.90;;;;;;5014235;28;20430;-69
2023/05/28 00:05:00;;;;;;;2.00;1.10;;;12.50;98.60;;;;;;5014143;28;20853;-68
2023/05/28 00:07:28;;;;;;;0.77;0.77;;;12.40;98.50;;;;;;5014049;28;20445;-68
2023/05/28 00:10:00;;;;;;;0.40;0.40;;;12.30;98.70;;;;;;5014178;28;20166;-68
2023/05/28 00:12:25;;;;;;;1.57;1.47;;;12.30;99.00;;;;;;5013986;28;20470;-68
2023/05/28 00:14:51;;;;;;;3.70;2.67;;;12.20;99.00;;;;;;5013905;28;20489;-69
2023/05/28 00:17:17;;;;;;;0.67;0.67;;;12.10;99.20;;;;;;5013737;28;20174;-69
2023/05/28 00:19:43;;;;;;;3.10;2.20;;;12.20;99.50;;;;;;5013684;28;20456;-69
2023/05/28 00:22:09;;;;;;;1.87;1.77;;;12.10;99.20;;;;;;5013791;28;20168;-69
2023/05/28 00:24:35;;;;;;;1.43;1.33;;;12.20;99.40;;;;;;5013774;28;20485;-69
2023/05/28 00:27:02;;;;;;;1.93;1.83;;;12.20;99.40;;;;;;5013675;28;20500;-69
2023/05/28 00:29:29;;;;;;;1.30;1.23;;;12.10;99.20;;;;;;5013816;28;20171;-68
2023/05/28 00:31:57;;;;;;;1.07;1.03;;;12.10;99.40;;;;;;5013949;28;20414;-68
2023/05/28 00:34:23;;;;;;;2.50;1.73;;;12.20;99.50;;;;;;5013793;28;20460;-68
2023/05/28 00:36:49;;;;;;;1.33;1.23;;;12.10;99.20;;;;;;5013628;28;20775;-68
2023/05/28 00:39:18;;;;;;;1.13;0.97;;;12.00;99.20;;;;;;5013599;28;20429;-69
2023/05/28 00:41:44;;;;;;;4.67;1.33;;;11.90;99.30;;;;;;5013645;28;20566;-69
2023/05/28 00:44:10;;;;;;;3.13;1.43;;;12.00;99.70;;;;;;5013494;28;20453;-69
2023/05/28 00:46:37;;;;;;;1.67;1.57;;;11.90;99.20;;;;;;5013413;28;20806;-69
2023/05/28 00:49:03;;;;;;;0.83;0.83;;;12.00;99.30;;;;;;5013625;28;20411;-68
2023/05/28 00:51:31;;;;;;;2.00;1.33;;;12.10;99.00;;;;;;5013712;28;20503;-69
2023/05/28 00:53:57;;;;;;;0.60;0.60;;;12.10;99.10;;;;;;5013357;28;20223;-68
2023/05/28 00:56:24;;;;;;;2.27;1.77;;;12.00;99.20;;;;;;5013357;28;20438;-69
2023/05/28 00:58:50;;;;;;;0.93;0.67;;;12.00;99.30;;;;;;5013508;28;20166;-69
2023/05/28 01:01:16;;;;;;;1.90;1.37;;;11.90;99.20;;;;;;5013477;28;20947;-68
2023/05/28 01:03:42;;;;;;;1.70;1.70;;;11.80;99.50;;;;;;5013300;28;20612;-69
2023/05/28 01:06:11;;;;;;;2.10;1.43;;;11.70;99.20;;;;;;5013170;28;20486;-69
2023/05/28 01:08:41;;;;;;;1.70;1.63;;;11.70;99.20;;;;;;5013435;28;20195;-68
2023/05/28 01:11:11;;;;;;;2.43;1.33;;;11.70;99.30;;;;;;5013224;28;20431;-68
2023/05/28 01:13:38;;;;;;;1.27;1.10;;;11.70;99.10;;;;;;5013321;28;20506;-69
2023/05/28 01:16:04;;;;;;;1.37;1.07;;;11.70;98.90;;;;;;5013160;28;20446;-69
2023/05/28 01:18:31;;;;;;;1.77;1.67;;;11.80;99.30;;;;;;5013493;28;20402;-68
2023/05/28 01:21:01;;;;;;;0.50;0.50;;;11.90;99.30;;;;;;5013390;28;20410;-69
2023/05/28 01:23:28;;;;;;;1.63;1.43;;;11.80;99.10;;;;;;5013703;28;20421;-68
2023/05/28 01:25:55;;;;;;;1.03;1.03;;;11.70;99.00;;;;;;5013075;28;20406;-68
2023/05/28 01:28:21;;;;;;;1.53;1.43;;;11.70;98.90;;;;;;5013403;28;20402;-69
2023/05/28 01:30:47;;;;;;;4.90;1.83;;;11.60;99.00;;;;;;5013188;28;20882;-69
2023/05/28 01:33:13;;;;;;;0.70;0.70;;;11.50;99.00;;;;;;5016115;28;20517;-69
2023/05/28 01:35:40;;;;;;;1.52;1.52;;;11.50;99.10;;;;;;5016679;28;20545;-69
2023/05/28 01:38:08;;;;;;;8.13;1.53;;;11.40;98.90;;;;;;5017189;28;20168;-69
2023/05/28 01:40:36;;;;;;;1.00;0.93;;;11.40;98.70;;;;;;5016850;28;20413;-69
2023/05/28 01:43:03;;;;;;;1.27;1.13;;;11.40;98.90;;;;;;5016813;28;20463;-68
2023/05/28 01:45:29;;;;;;;2.85;1.13;;;11.40;98.40;;;;;;5016546;28;20414;-69
2023/05/28 01:47:55;;;;;;;1.58;1.10;;;11.50;98.10;;;;;;5016679;28;20176;-69
2023/05/28 01:50:21;;;;;;;1.73;1.63;;;11.60;98.50;;;;;;5016639;28;20175;-68
2023/05/28 01:52:46;;;;;;;2.10;1.70;;;11.60;98.40;;;;;;5016674;28;20195;-68
2023/05/28 01:55:13;;;;;;;1.13;1.13;;;11.70;98.50;;;;;;5016445;28;20934;-68
2023/05/28 01:57:39;;;;;;;0.70;0.70;;;11.70;98.20;;;;;;5016488;28;20214;-69
2023/05/28 02:00:06;;;;;;;0.97;0.97;;;11.60;98.40;;;;;;5016695;28;20437;-69
2023/05/28 02:02:32;;;;;;;0.95;0.95;;;11.60;98.60;;;;;;5016322;28;20525;-69
2023/05/28 02:04:58;;;;;;;3.40;2.63;;;11.60;98.20;;;;;;4998668;28;20267;-68
2023/05/28 02:07:23;;;;;;;2.97;2.73;;;11.60;98.10;;;;;;5016155;28;20199;-69
2023/05/28 02:09:49;;;;;;;1.40;1.30;;;11.40;98.10;;;;;;5016336;28;20172;-69
2023/05/28 02:12:15;;;;;;;3.43;2.00;;;11.50;99.90;;;;;;5016140;28;20191;-69
2023/05/28 02:14:42;;;;;;;1.15;1.15;;;11.40;98.10;;;;;;5016112;28;20450;-68
2023/05/28 02:17:09;;;;;;;4.40;1.65;;;11.40;98.10;;;;;;5015894;28;20608;-68
2023/05/28 02:19:35;;;;;;;0.95;0.95;;;11.40;98.10;;;;;;5016106;28;20164;-68
2023/05/28 02:22:01;;;;;;;0.87;0.87;;;11.40;98.00;;;;;;5016214;28;20168;-69
2023/05/28 02:24:26;;;;;;;2.33;1.67;;;11.40;98.40;;;;;;5016005;28;20966;-69
2023/05/28 02:26:52;;;;;;;1.30;1.30;;;11.30;98.40;;;;;;5015874;28;20553;-69
2023/05/28 02:29:18;;;;;;;1.43;1.30;;;11.40;98.50;;;;;;5016100;28;20171;-68
2023/05/28 02:31:43;;;;;;;0.80;0.80;;;11.40;98.40;;;;;;5015810;28;20743;-69
2023/05/28 02:34:09;;;;;;;0.83;0.83;;;11.30;98.00;;;;;;5016054;28;20196;-68
2023/05/28 02:36:35;;;;;;;0.70;0.70;;;11.30;98.30;;;;;;5015695;28;20168;-69
2023/05/28 02:39:01;;;;;;;0.40;0.40;;;11.20;98.00;;;;;;5015781;28;20496;-69
2023/05/28 02:41:27;;;;;;;1.50;1.07;;;11.30;98.10;;;;;;5015773;28;20177;-69
2023/05/28 02:43:53;;;;;;;0.50;0.50;;;11.20;98.20;;;;;;5015232;28;20426;-69
2023/05/28 02:46:18;;;;;;;1.03;0.90;;;11.10;98.30;;;;;;5015358;28;20163;-69
2023/05/28 02:48:45;;;;;;;1.87;1.73;;;11.00;98.40;;;;;;5015564;28;20975;-69
2023/05/28 02:51:11;;;;;;;1.73;1.63;;;11.00;98.70;;;;;;5015704;28;20199;-69
2023/05/28 02:53:37;;;;;;;0.60;0.60;;;11.00;98.70;;;;;;5015269;28;20458;-69
2023/05/28 02:56:03;;;;;;;1.25;1.20;;;11.00;98.60;;;;;;5015315;28;20230;-68
2023/05/28 02:58:30;;;;;;;0.60;0.60;;;11.00;98.50;;;;;;5015315;28;20163;-68
2023/05/28 03:00:56;;;;;;;0.65;0.65;;;11.00;98.60;;;;;;5015441;28;20957;-69
2023/05/28 03:03:22;;;;;;;0.73;0.73;;;10.90;98.80;;;;;;5015214;28;20203;-68
2023/05/28 03:05:51;;;;;;;1.37;1.37;;;11.00;99.00;;;;;;5015217;28;20298;-69
2023/05/28 03:08:17;;;;;;;1.10;1.10;;;11.00;98.70;;;;;;5015293;28;20172;-69
2023/05/28 03:10:42;;;;;;;0.93;0.80;;;11.00;99.00;;;;;;5015188;28;20595;-69
2023/05/28 03:13:08;;;;;;;0.60;0.60;;;11.00;98.80;;;;;;5015089;28;20525;-68
2023/05/28 03:15:34;;;;;;;1.87;1.77;;;10.90;98.20;;;;;;5014798;28;20199;-69
2023/05/28 03:17:59;;;;;;;1.40;1.30;;;10.90;98.60;;;;;;5015142;28;20172;-68
2023/05/28 03:20:25;;;;;;;0.60;0.60;;;10.90;98.60;;;;;;5015028;28;20171;-68
2023/05/28 03:22:58;;;;;;;1.03;0.93;;;10.90;98.50;;;;;;5014262;28;20190;-69
2023/05/28 03:25:25;;;;;;;2.10;1.42;;;10.90;98.80;;;;;;5015019;28;20162;-68
2023/05/28 03:27:53;;;;;;;0.60;0.60;;;11.00;98.80;;;;;;5014846;28;20168;-69
2023/05/28 03:30:21;;;;;;;0.82;0.70;;;10.90;98.90;;;;;;5014877;28;20193;-68
2023/05/28 03:32:47;;;;;;;0.55;0.55;;;10.90;98.80;;;;;;5014760;28;20199;-69
2023/05/28 03:35:13;;;;;;;0.70;0.70;;;10.80;98.90;;;;;;5014546;28;20199;-68
2023/05/28 03:37:38;;;;;;;2.33;1.03;;;10.90;98.70;;;;;;5014418;28;20168;-69
2023/05/28 03:40:05;;;;;;;7.00;2.30;;;11.10;98.30;;;;;;4997022;28;20183;-69
2023/05/28 03:42:30;;;;;;;11.13;1.40;;;11.10;98.10;;;;;;5014806;28;20194;-68
2023/05/28 03:44:56;;;;;;;4.00;1.33;;;11.00;98.20;;;;;;5014520;28;20176;-68
2023/05/28 03:47:22;;;;;;;1.07;0.97;;;11.00;98.30;;;;;;5014456;28;20175;-69
2023/05/28 03:49:47;;;;;;;2.83;1.63;;;10.90;98.60;;;;;;5014305;28;20187;-69
2023/05/28 03:52:14;;;;;;;1.35;1.15;;;10.90;99.90;;;;;;5014261;28;20414;-68
2023/05/28 03:54:40;;;;;;;0.97;0.97;;;11.00;98.60;;;;;;5013638;28;20207;-68
2023/05/28 03:57:06;;;;;;;1.95;1.48;;;10.90;98.10;;;;;;5014276;28;20560;-68
2023/05/28 03:59:32;;;;;;;1.33;1.20;;;10.90;98.20;;;;;;5014432;28;20590;-69
2023/05/28 04:01:57;;;;;;;4.03;1.87;;;11.00;97.90;;;;;;5014377;28;20254;-68
2023/05/28 04:04:23;;;;;;;2.00;1.90;;;11.10;97.90;;;;;;5014214;28;20171;-68
2023/05/28 04:06:48;;;;;;;1.00;1.00;;;11.10;98.60;;;;;;5014018;28;20254;-68
2023/05/28 04:09:15;;;;;;;2.40;1.80;;;11.00;98.70;;;;;;5014160;28;20675;-68
2023/05/28 04:11:40;;;;;;;0.40;0.40;;;11.00;98.80;;;;;;5013904;28;20191;-69
2023/05/28 04:14:07;;;;;;;0.70;0.70;;;10.90;98.80;;;;;;5013897;28;20728;-68
2023/05/28 04:16:33;;;;;;;2.05;1.90;;;10.90;99.10;;;;;;5013872;28;20167;-68
2023/05/28 04:19:00;;;;;;;1.73;1.63;;;11.00;98.90;;;;;;5014097;28;20172;-69
2023/05/28 04:21:26;;;;;;;1.77;0.87;;;11.10;98.90;;;;;;5013907;28;20187;-68
2023/05/28 04:23:51;;;;;;;0.83;0.83;;;11.10;98.90;;;;;;5013928;28;20949;-68
2023/05/28 04:26:20;;;;;;;0.60;0.60;;;11.30;98.80;;;;;;5013657;28;20176;-68
2023/05/28 04:28:46;;;;;;;1.53;1.20;;;11.30;99.00;;;;;;5013878;28;20170;-69
2023/05/28 04:31:12;;;;;;;1.37;1.23;;;11.50;98.70;;;;;;5013985;28;20795;-68
2023/05/28 04:33:38;;;;;;;1.00;0.83;;;11.60;98.50;;;;;;5013853;28;20456;-68
2023/05/28 04:36:04;;;;;;;1.07;1.03;;;11.90;98.60;;;;;;5013502;28;20564;-69
2023/05/28 04:38:33;;;;;;;1.47;1.37;;;12.30;98.60;;;;;;5013690;28;20753;-68
2023/05/28 04:40:59;;;;;;;1.33;1.00;;;12.60;96.90;;;;;;5013731;28;20398;-69
2023/05/28 04:43:26;;;;;;;1.43;1.33;;;12.80;96.50;;;;;;5013458;28;20465;-69
2023/05/28 04:45:53;;;;;;;3.60;1.43;;;13.00;96.70;;;;;;5013608;28;20486;-69
2023/05/28 04:48:19;;;;;;;1.60;1.50;;;13.20;96.20;;;;;;5013775;28;20416;-69
2023/05/28 04:50:45;;;;;;;0.63;0.63;;;13.40;95.80;;;;;;5013560;28;20504;-69
2023/05/28 04:53:11;;;;;;;3.30;0.70;;;13.60;95.70;;;;;;5013483;28;20437;-68
2023/05/28 04:55:36;;;;;;;0.77;0.77;;;13.90;95.60;;;;;;5013294;28;20458;-69
2023/05/28 04:58:02;;;;;;;0.80;0.80;;;14.20;95.20;;;;;;5013581;28;20168;-69
2023/05/28 05:00:28;;;;;;;1.40;1.30;;;14.60;94.80;;;;;;5013581;28;20535;-69
2023/05/28 05:02:54;;;;;;;5.03;1.30;;;14.90;93.90;;;;;;5013537;28;20440;-69
2023/05/28 05:05:20;;;;;;;2.53;2.33;;;15.40;93.20;;;;;;5013594;28;20662;-69
2023/05/28 05:07:46;;;;;;;1.37;1.37;;;16.10;91.90;;;;;;5017346;28;20414;-69
2023/05/28 05:10:13;;;;;;;1.03;0.97;;;16.80;90.80;;;;;;5017514;28;20414;-69
2023/05/28 05:12:39;;;;;;;1.13;0.90;;;17.60;89.20;;;;;;5017336;28;20211;-69
2023/05/28 05:15:05;;;;;;;1.43;1.10;;;18.00;86.10;;;;;;5017259;28;20456;-69
2023/05/28 05:17:32;;;;;;;0.77;0.77;;;18.30;84.90;;;;;;5016986;28;20418;-69
2023/05/28 05:19:58;;;;;;;1.03;1.00;;;18.50;83.20;;;;;;4999608;28;20415;-69
2023/05/28 05:22:24;;;;;;;2.97;1.27;;;18.60;80.80;;;;;;5017112;28;20430;-69
2023/05/28 05:24:49;;;;;;;0.83;0.80;;;18.60;81.30;;;;;;4999481;28;20462;-69
2023/05/28 05:27:15;;;;;;;0.70;0.70;;;18.50;80.90;;;;;;5017084;28;20182;-69
2023/05/28 05:29:41;;;;;;;1.13;1.03;;;18.40;81.30;;;;;;5017181;28;20175;-69
2023/05/28 05:32:08;;;;;;;2.13;1.57;;;18.30;81.20;;;;;;4999412;28;20845;-69
2023/05/28 05:34:33;;;;;;;0.90;0.90;;;18.20;81.10;;;;;;5016853;28;20539;-69
2023/05/28 05:36:59;;;;;;;1.70;1.20;;;18.10;79.30;;;;;;5016820;28;20409;-69
2023/05/28 05:39:25;;;;;;;1.50;0.90;;;18.00;80.80;;;;;;5016927;28;20176;-69
2023/05/28 05:41:51;;;;;;;1.53;1.43;;;18.00;79.30;;;;;;5017004;28;20404;-69
2023/05/28 05:44:16;;;;;;;1.43;1.33;;;18.20;80.60;;;;;;5016693;28;20195;-69
2023/05/28 05:46:42;;;;;;;1.77;0.70;;;18.60;80.30;;;;;;5016441;28;20171;-69
2023/05/28 05:49:09;;;;;;;0.63;0.63;;;19.00;78.80;;;;;;5016705;28;20181;-69
2023/05/28 05:51:35;;;;;;;1.83;1.10;;;19.20;75.20;;;;;;5016823;28;20173;-69
2023/05/28 05:54:04;;;;;;;2.20;2.00;;;19.30;76.90;;;;;;5016463;28;20432;-69
2023/05/28 05:56:30;;;;;;;0.83;0.83;;;19.20;70.60;;;;;;5016318;28;20941;-69
2023/05/28 05:58:58;;;;;;;1.10;0.63;;;19.20;71.50;;;;;;5016539;28;20398;-69
2023/05/28 06:01:23;;;;;;;1.97;1.37;;;19.60;68.40;;;;;;5016488;28;20174;-69
2023/05/28 06:03:49;;;;;;;0.90;0.90;;;19.90;68.30;;;;;;5016290;28;20940;-69
2023/05/28 06:06:15;;;;;;;1.23;1.00;;;20.10;66.50;;;;;;5016100;28;20183;-69
2023/05/28 06:08:41;;;;;;;1.10;1.07;;;19.90;65.20;;;;;;5016318;28;20257;-69
2023/05/28 06:11:07;;;;;;;0.50;0.50;;;19.90;67.30;;;;;;5016195;28;20799;-69
2023/05/28 06:13:33;;;;;;;0.50;0.50;;;20.40;69.90;;;;;;5016267;28;20440;-69
2023/05/28 06:15:59;;;;;;;0.40;0.40;;;21.20;62.20;;;;;;5016082;28;20289;-69
2023/05/28 06:18:26;;;;;;;0.60;0.60;;;22.70;59.30;;;;;;5014204;28;20616;-70
2023/05/28 06:20:51;;;;;;;1.00;0.83;;;24.40;57.30;;;;;;5016099;28;20172;-69
2023/05/28 06:23:18;;;;;;;1.00;0.97;;;25.70;57.20;;;;;;5015882;28;20398;-70
2023/05/28 06:25:44;;;;;;;0.63;0.63;;;27.10;53.10;;;;;;5016042;28;20182;-69
2023/05/28 06:28:10;;;;;;;0.73;0.73;;;26.70;48.20;;;;;;5016042;28;20773;-70
2023/05/28 06:30:36;;;;;;;0.90;0.90;;;26.50;46.20;;;;;;5015885;28;20591;-70
2023/05/28 06:33:02;;;;;;;0.93;0.87;;;27.20;45.70;;;;;;5015917;28;20422;-69
2023/05/28 06:35:28;;;;;;;1.07;1.00;;;26.70;43.40;;;;;;5015698;28;20195;-70
2023/05/28 06:37:53;;;;;;;2.03;1.13;;;26.70;43.50;;;;;;5015860;28;20910;-70
2023/05/28 06:40:19;;;;;;;0.90;0.90;;;27.40;43.40;;;;;;5015851;28;20168;-70
2023/05/28 06:42:45;;;;;;;0.60;0.60;;;28.20;40.10;;;;;;5015755;28;20246;-70
2023/05/28 06:45:11;;;;;;;1.30;1.17;;;27.90;41.10;;;;;;5015609;28;20407;-70
2023/05/28 06:47:37;;;;;;;1.17;0.83;;;28.00;40.80;;;;;;5015337;28;20554;-70
2023/05/28 06:50:03;;;;;;;0.90;0.90;;;27.90;40.20;;;;;;5015571;28;20403;-69
2023/05/28 06:52:28;;;;;;;1.30;1.20;;;27.40;40.10;;;;;;5015374;28;20204;-70
2023/05/28 06:54:54;;;;;;;1.23;1.00;;;26.80;41.40;;;;;;5015347;28;20476;-70
2023/05/28 06:57:20;;;;;;;1.60;0.63;;;26.90;41.80;;;;;;5015198;28;20175;-70
2023/05/28 06:59:46;;;;;;;1.33;0.77;;;27.40;41.60;;;;;;5015383;28;20174;-70
2023/05/28 07:02:12;;;;;;;1.00;0.70;;;28.10;40.50;;;;;;5015258;28;20399;-70
2023/05/28 07:04:37;;;;;;;0.90;0.90;;;28.00;40.20;;;;;;5015288;28;20613;-70
2023/05/28 07:07:04;;;;;;;1.13;0.70;;;27.50;40.50;;;;;;5015100;28;20175;-70
2023/05/28 07:09:30;;;;;;;1.37;0.70;;;26.90;42.20;;;;;;5015350;28;20255;-70
2023/05/28 07:11:56;;;;;;;1.37;0.60;;;26.30;42.00;;;;;;5015025;28;20426;-70
2023/05/28 07:14:22;;;;;;;0.70;0.70;;;26.10;42.10;;;;;;5014909;28;20431;-70
2023/05/28 07:16:47;;;;;;;0.80;0.80;;;26.00;44.30;;;;;;4997368;28;20168;-70
2023/05/28 07:19:13;;;;;;;0.87;0.87;;;25.70;42.60;;;;;;5014993;28;20377;-70
2023/05/28 07:21:39;;;;;;;0.90;0.67;;;25.00;45.40;;;;;;5015003;28;20176;-69
2023/05/28 07:24:05;;;;;;;6.00;2.70;;;24.30;47.30;;;;;;5014851;28;20184;-70
2023/05/28 07:26:32;;;;;;;0.70;0.67;;;24.40;47.60;;;;;;5014764;28;20168;-70
2023/05/28 07:28:57;;;;;;;1.40;1.30;;;24.70;46.00;;;;;;5014308;28;20865;-70
2023/05/28 07:31:23;;;;;;;0.80;0.63;;;25.10;46.00;;;;;;5014304;28;20485;-70
2023/05/28 07:33:50;;;;;;;2.40;1.70;;;25.50;44.00;;;;;;5014554;28;20279;-69
2023/05/28 07:36:16;;;;;;;1.37;1.27;;;25.60;44.60;;;;;;5014594;28;20170;-69
2023/05/28 07:38:42;;;;;;;1.50;1.40;;;25.50;42.50;;;;;;5014880;28;20407;-70
2023/05/28 07:41:08;;;;;;;0.70;0.70;;;25.80;43.60;;;;;;5014486;28;20539;-70
2023/05/28 07:43:34;;;;;;;0.80;0.70;;;26.50;43.30;;;;;;5014463;28;20521;-70
2023/05/28 07:45:59;;;;;;;3.60;0.93;;;26.80;41.80;;;;;;5014260;28;20176;-70
2023/05/28 07:48:25;;;;;;;1.73;1.13;;;27.60;42.00;;;;;;5014483;28;20230;-70
2023/05/28 07:50:59;;;;;;;0.83;0.83;;;27.60;43.50;;;;;;5070978;28;20514;-69
2023/05/28 07:53:25;;;;;;;1.00;0.87;;;27.00;41.50;;;;;;5070542;28;20418;-69
2023/05/28 07:55:51;;;;;;;0.83;0.80;;;27.00;41.80;;;;;;5070393;28;20445;-70
2023/05/28 07:58:17;;;;;;;1.37;0.87;;;28.20;41.70;;;;;;5070991;28;20484;-70
2023/05/28 08:00:44;;;;;;;1.80;1.17;;;30.10;39.50;;;;;;5070593;28;20479;-69
2023/05/28 08:03:11;;;;;;;3.10;0.90;;;30.80;36.90;;;;;;5070749;28;20189;-69
2023/05/28 08:05:36;;;;;;;0.90;0.63;;;30.40;37.20;;;;;;5070220;28;20403;-70
2023/05/28 08:08:02;;;;;;;1.57;1.07;;;31.50;35.50;;;;;;5070623;28;20414;-70
2023/05/28 08:10:28;;;;;;;4.20;0.97;;;32.30;34.10;;;;;;5070431;28;20196;-70
2023/05/28 08:12:54;;;;;;;1.43;1.33;;;32.90;33.80;;;;;;5070209;28;20428;-70
2023/05/28 08:15:20;;;;;;;0.90;0.90;;;33.60;32.90;;;;;;5070215;28;20169;-70
2023/05/28 08:17:45;;;;;;;0.70;0.70;;;33.90;31.20;;;;;;5070140;28;20291;-70
2023/05/28 08:20:11;;;;;;;0.80;0.60;;;33.80;32.90;;;;;;5070244;28;20162;-70
2023/05/28 08:22:37;;;;;;;0.70;0.63;;;33.40;31.10;;;;;;5070214;28;20196;-70
2023/05/28 08:25:03;;;;;;;4.10;1.30;;;33.00;30.90;;;;;;5069954;28;20622;-70
2023/05/28 08:27:28;;;;;;;1.27;0.80;;;32.30;31.70;;;;;;5069818;28;20201;-69
2023/05/28 08:29:54;;;;;;;0.80;0.60;;;30.00;33.30;;;;;;5070051;28;20307;-69
2023/05/28 08:32:20;;;;;;;1.47;1.10;;;29.40;35.30;;;;;;5069809;28;20264;-70
2023/05/28 08:34:45;;;;;;;1.37;1.20;;;29.50;35.40;;;;;;5069942;28;20182;-70
2023/05/28 08:37:13;;;;;;;1.17;1.07;;;29.90;34.20;;;;;;5069416;28;20165;-70
2023/05/28 08:39:38;;;;;;;1.17;1.17;;;30.30;35.20;;;;;;5069774;28;20185;-69
2023/05/28 08:42:05;;;;;;;1.67;1.13;;;30.80;33.50;;;;;;5069765;28;20391;-70
2023/05/28 08:44:31;;;;;;;1.70;0.93;;;31.60;32.90;;;;;;5069648;28;20533;-70
2023/05/28 08:46:56;;;;;;;0.80;0.50;;;32.30;33.20;;;;;;5069396;28;20404;-70
2023/05/28 08:49:31;;;;;;;2.23;1.10;;;33.00;32.90;;;;;;5069316;28;20202;-70
2023/05/28 08:52:02;;;;;;;2.63;0.70;;;33.30;31.70;;;;;;5069364;28;20193;-69
2023/05/28 08:54:29;;;;;;;1.30;1.20;;;33.10;30.60;;;;;;5069384;28;20879;-69
2023/05/28 08:56:55;;;;;;;1.30;0.90;;;31.40;34.40;;;;;;5069190;28;20428;-70
2023/05/28 08:59:22;;;;;;;1.10;0.90;;;31.10;32.20;;;;;;5069311;28;20401;-70
2023/05/28 09:01:49;;;;;;;1.17;1.07;;;31.50;33.70;;;;;;5058913;28;20401;-70
2023/05/28 09:04:15;;;;;;;1.13;0.90;;;32.00;33.30;;;;;;5055952;28;20432;-70
2023/05/28 09:06:40;;;;;;;0.97;0.90;;;32.60;33.00;;;;;;5055837;28;20401;-70
2023/05/28 09:09:09;;;;;;;1.20;0.90;;;32.80;32.70;;;;;;5056029;28;20202;-70
2023/05/28 09:11:35;;;;;;;2.67;0.87;;;32.80;32.10;;;;;;5056085;28;20166;-69
2023/05/28 09:14:12;;;;;;;1.13;0.80;;;31.20;32.50;;;;;;5055927;28;20423;-69
2023/05/28 09:16:42;;;;;;;2.10;1.00;;;31.20;35.00;;;;;;5055705;28;20688;-70
2023/05/28 09:19:09;;;;;;;2.20;1.30;;;31.40;32.90;;;;;;5055951;28;20409;-70
2023/05/28 09:21:36;;;;;;;1.00;1.00;;;31.00;33.10;;;;;;5055732;28;20415;-70
2023/05/28 09:24:03;;;;;;;2.30;0.90;;;30.40;33.40;;;;;;5055580;28;20452;-69
2023/05/28 09:26:33;;;;;;;0.90;0.60;;;29.00;37.40;;;;;;5055378;28;20408;-69
2023/05/28 09:28:59;;;;;;;0.90;0.70;;;28.10;38.30;;;;;;5055613;28;20464;-69
2023/05/28 09:31:32;;;;;;;1.13;0.90;;;27.50;37.60;;;;;;5055674;28;20412;-69
2023/05/28 09:33:59;;;;;;;1.83;1.13;;;27.30;39.20;;;;;;5056061;28;20432;-70
2023/05/28 09:36:25;;;;;;;1.37;1.27;;;28.30;37.90;;;;;;5055312;28;20430;-70
2023/05/28 09:38:51;;;;;;;1.00;0.90;;;28.80;35.60;;;;;;5055786;28;20417;-70
2023/05/28 09:41:20;;;;;;;1.30;1.17;;;29.70;35.70;;;;;;5055577;28;20261;-69
2023/05/28 09:43:54;;;;;;;0.63;0.50;;;29.80;35.80;;;;;;5055257;28;20272;-70
2023/05/28 09:46:20;;;;;;;2.00;1.37;;;29.70;37.20;;;;;;5055144;28;20405;-69
2023/05/28 09:48:45;;;;;;;1.30;1.20;;;29.60;35.60;;;;;;5055486;28;20449;-69
2023/05/28 09:51:13;;;;;;;1.63;1.53;;;28.50;37.20;;;;;;5055185;28;20253;-69
2023/05/28 09:53:44;;;;;;;1.20;1.10;;;28.90;37.50;;;;;;5055149;28;20201;-69
2023/05/28 09:56:11;;;;;;;0.70;0.70;;;29.70;35.60;;;;;;5055053;28;20928;-70
2023/05/28 09:58:39;;;;;;;0.87;0.87;;;30.40;35.50;;;;;;5054993;28;20461;-70
2023/05/28 10:01:11;;;;;;;1.73;1.33;;;30.80;34.30;;;;;;5054867;28;20405;-69
2023/05/28 10:03:38;;;;;;;1.87;0.90;;;30.20;36.20;;;;;;5054873;28;20437;-69
2023/05/28 10:06:11;;;;;;;1.03;1.00;;;29.70;37.00;;;;;;5054923;28;20408;-69
2023/05/28 10:08:37;;;;;;;1.17;1.07;;;29.70;35.10;;;;;;5054988;28;20417;-69
2023/05/28 10:11:07;;;;;;;1.93;0.90;;;29.60;35.30;;;;;;5054932;28;20436;-69
2023/05/28 10:13:32;;;;;;;3.80;1.23;;;29.50;35.70;;;;;;5053624;28;20438;-70
2023/05/28 10:15:58;;;;;;;1.33;0.80;;;29.60;38.80;;;;;;5054517;28;20881;-69
2023/05/28 10:18:25;;;;;;;2.10;1.00;;;30.20;37.90;;;;;;5054712;28;20176;-70
2023/05/28 10:20:51;;;;;;;0.80;0.80;;;30.90;34.50;;;;;;5054646;28;20261;-70
2023/05/28 10:23:20;;;;;;;1.60;1.50;;;30.90;34.10;;;;;;5054698;28;20546;-69
2023/05/28 10:25:47;;;;;;;1.47;0.90;;;30.50;36.80;;;;;;5054496;28;20174;-70
2023/05/28 10:28:15;;;;;;;1.33;1.07;;;30.00;34.10;;;;;;5054455;28;20448;-69
2023/05/28 10:30:41;;;;;;;2.40;1.03;;;30.10;36.20;;;;;;5054517;28;20513;-70
2023/05/28 10:33:18;;;;;;;1.03;1.03;;;29.80;36.30;;;;;;5054499;28;20783;-70
2023/05/28 10:35:58;;;;;;;1.40;1.30;;;30.00;36.90;;;;;;5054322;28;20256;-70
2023/05/28 10:38:24;;;;;;;1.20;1.10;;;30.20;39.50;;;;;;5054427;28;20487;-69
2023/05/28 10:40:50;;;;;;;1.33;1.20;;;30.20;37.90;;;;;;5054376;28;20417;-69
2023/05/28 10:43:38;;;;;;;1.40;1.30;;;30.40;37.70;;;;;;5054244;28;20436;-69
2023/05/28 10:46:16;;;;;;;1.17;1.07;;;30.60;39.20;;;;;;5054004;28;20409;-69
2023/05/28 10:49:05;;;;;;;1.20;0.90;;;30.00;36.80;;;;;;5054112;28;20404;-70
2023/05/28 10:52:00;;;;;;;0.70;0.67;;;29.50;39.70;;;;;;5054254;28;20407;-70
2023/05/28 10:54:37;;;;;;;1.67;1.57;;;28.90;39.10;;;;;;5054224;28;20909;-69
2023/05/28 10:57:22;;;;;;;0.80;0.73;;;28.80;39.10;;;;;;5053763;28;20503;-69
2023/05/28 10:59:48;;;;;;;1.73;1.30;;;28.80;39.40;;;;;;5054016;28;20457;-69
2023/05/28 11:02:20;;;;;;;0.73;0.70;;;28.90;39.10;;;;;;5054003;28;20415;-70
2023/05/28 11:04:50;;;;;;;1.30;1.23;;;28.80;37.50;;;;;;5054041;28;20688;-70
2023/05/28 11:07:17;;;;;;;2.50;1.03;;;28.80;40.00;;;;;;5053472;28;20432;-70
2023/05/28 11:09:51;;;;;;;1.57;0.73;;;28.70;43.60;;;;;;5053545;28;20463;-69
2023/05/28 11:12:19;;;;;;;1.63;0.80;;;28.70;39.20;;;;;;5053568;28;20888;-70
2023/05/28 11:14:44;;;;;;;0.87;0.87;;;28.10;39.80;;;;;;5053575;28;20405;-69
2023/05/28 11:17:11;;;;;;;1.73;1.47;;;27.70;39.50;;;;;;5053558;28;20458;-69
2023/05/28 11:19:45;;;;;;;0.70;0.70;;;27.30;38.10;;;;;;5053799;28;20199;-69
2023/05/28 11:22:12;;;;;;;1.43;1.33;;;27.10;39.20;;;;;;5053556;28;20439;-69
2023/05/28 11:25:00;;;;;;;2.20;0.77;;;27.00;43.20;;;;;;5053271;28;20379;-69
2023/05/28 11:27:27;;;;;;;0.83;0.83;;;26.60;39.10;;;;;;5053517;28;20469;-69
2023/05/28 11:29:57;;;;;;;0.80;0.80;;;25.80;41.90;;;;;;5053468;28;20456;-69
2023/05/28 11:32:24;;;;;;;1.43;1.33;;;25.80;44.10;;;;;;5053582;28;20796;-69
2023/05/28 11:34:51;;;;;;;1.90;1.43;;;26.00;40.90;;;;;;5053380;28;20434;-69
2023/05/28 11:37:24;;;;;;;1.23;0.90;;;26.20;40.10;;;;;;5053214;28;20403;-70
2023/05/28 11:39:51;;;;;;;1.83;1.30;;;26.30;40.60;;;;;;5053646;28;20454;-69
2023/05/28 11:42:18;;;;;;;0.80;0.80;;;26.20;41.20;;;;;;5053409;28;20442;-69
2023/05/28 11:44:48;;;;;;;1.07;0.80;;;25.80;43.00;;;;;;5053329;28;20745;-69
2023/05/28 11:47:14;;;;;;;0.63;0.57;;;25.60;41.20;;;;;;5053063;28;20409;-69
2023/05/28 11:49:41;;;;;;;1.93;1.43;;;25.50;44.40;;;;;;5053306;28;20439;-69
2023/05/28 11:52:11;;;;;;;1.20;1.03;;;25.20;41.50;;;;;;5053225;28;20465;-69
2023/05/28 11:54:39;;;;;;;0.70;0.70;;;24.40;41.90;;;;;;5053431;28;20537;-69
2023/05/28 11:57:06;;;;;;;0.70;0.70;;;24.30;43.90;;;;;;5052921;28;20409;-69
2023/05/28 11:59:32;;;;;;;1.23;0.80;;;24.20;40.40;;;;;;5053258;28;20851;-69
2023/05/28 12:02:15;;;;;;;0.67;0.67;;;24.10;42.30;;;;;;5053093;28;20412;-69
2023/05/28 12:04:55;;;;;;;2.10;0.93;;;24.10;41.70;;;;;;5053109;28;20853;-69
2023/05/28 12:07:21;;;;;;;0.70;0.67;;;24.10;41.20;;;;;;5053065;28;20410;-70
2023/05/28 12:09:46;;;;;;;1.53;1.43;;;24.40;40.80;;;;;;5053079;28;20567;-69
2023/05/28 12:12:12;;;;;;;1.17;1.13;;;24.70;40.90;;;;;;5052901;28;20487;-69
2023/05/28 12:14:38;;;;;;;0.57;0.57;;;24.70;39.80;;;;;;5053169;28;20162;-69
2023/05/28 12:17:08;;;;;;;1.27;1.00;;;24.60;41.50;;;;;;5052903;28;20178;-69
2023/05/28 12:19:35;;;;;;;1.10;0.83;;;24.80;41.70;;;;;;5053236;28;20488;-69
2023/05/28 12:22:01;;;;;;;0.80;0.63;;;25.00;40.80;;;;;;5052765;28;20413;-69
2023/05/28 12:24:28;;;;;;;2.50;1.10;;;25.20;41.50;;;;;;5052833;28;20387;-69
2023/05/28 12:26:54;;;;;;;0.87;0.87;;;25.00;42.40;;;;;;5052751;28;20417;-68
2023/05/28 12:29:20;;;;;;;0.60;0.57;;;24.80;40.40;;;;;;5052825;28;20782;-69
2023/05/28 12:31:45;;;;;;;2.53;1.30;;;24.60;41.60;;;;;;5052803;28;20208;-69
2023/05/28 12:34:11;;;;;;;2.53;0.80;;;24.70;42.20;;;;;;5052638;28;20683;-69
2023/05/28 12:36:37;;;;;;;0.63;0.63;;;24.60;43.30;;;;;;5054618;28;20616;-69
2023/05/28 12:39:04;;;;;;;0.80;0.63;;;24.60;42.90;;;;;;5056776;28;20198;-69
2023/05/28 12:41:30;;;;;;;1.20;1.17;;;24.60;42.30;;;;;;5056448;28;20379;-69
2023/05/28 12:43:56;;;;;;;1.17;0.87;;;24.60;41.80;;;;;;5056400;28;20432;-69
2023/05/28 12:46:22;;;;;;;0.90;0.90;;;24.30;41.90;;;;;;5056164;28;20459;-69